sensor_id;sensor_type;location;lat;lon;timestamp;pressure;altitude;pressure_sealevel;temperature;humidity
79577;BME280;69045;48.136;11.386;2023-09-12T00:00:51;95089.09;;;22.67;60.55
79577;BME280;69045;48.136;11.386;2023-09-12T00:03:20;95089.81;;;22.45;61.27
79577;BME280;69045;48.136;11.386;2023-09-12T00:05:52;95087.53;;;22.39;61.52
79577;BME280;69045;48.136;11.386;2023-09-12T00:08:20;95084.66;;;22.35;61.29
79577;BME280;69045;48.136;11.386;2023-09-12T00:11:00;95084.78;;;22.30;61.40
79577;BME280;69045;48.136;11.386;2023-09-12T00:13:28;95086.06;;;22.19;62.03
79577;BME280;69045;48.136;11.386;2023-09-12T00:15:56;95087.13;;;22.18;62.22
79577;BME280;69045;48.136;11.386;2023-09-12T00:18:25;95076.78;;;22.16;62.55
79577;BME280;69045;48.136;11.386;2023-09-12T00:20:53;95081.59;;;22.14;62.55
79577;BME280;69045;48.136;11.386;2023-09-12T00:23:22;95083.28;;;22.10;62.69
79577;BME280;69045;48.136;11.386;2023-09-12T00:25:50;95080.38;;;22.06;62.44
79577;BME280;69045;48.136;11.386;2023-09-12T00:28:21;95077.41;;;22.08;62.74
79577;BME280;69045;48.136;11.386;2023-09-12T00:30:49;95085.41;;;22.08;62.99
79577;BME280;69045;48.136;11.386;2023-09-12T00:33:17;95073.69;;;22.09;62.93
79577;BME280;69045;48.136;11.386;2023-09-12T00:35:45;95077.41;;;22.08;63.10
79577;BME280;69045;48.136;11.386;2023-09-12T00:38:13;95069.16;;;22.10;62.79
79577;BME280;69045;48.136;11.386;2023-09-12T00:40:41;95066.97;;;22.12;63.21
79577;BME280;69045;48.136;11.386;2023-09-12T00:43:09;95058.19;;;22.11;63.18
79577;BME280;69045;48.136;11.386;2023-09-12T00:45:38;95061.94;;;22.10;63.25
79577;BME280;69045;48.136;11.386;2023-09-12T00:48:07;95060.84;;;22.11;63.87
79577;BME280;69045;48.136;11.386;2023-09-12T00:50:38;95058.97;;;22.12;63.83
79577;BME280;69045;48.136;11.386;2023-09-12T00:53:07;95060.34;;;22.09;63.49
79577;BME280;69045;48.136;11.386;2023-09-12T00:55:39;95059.25;;;22.10;64.03
79577;BME280;69045;48.136;11.386;2023-09-12T00:58:10;95054.91;;;22.14;64.11
79577;BME280;69045;48.136;11.386;2023-09-12T01:00:40;95055.41;;;22.16;63.77
79577;BME280;69045;48.136;11.386;2023-09-12T01:03:08;95047.19;;;22.13;64.50
79577;BME280;69045;48.136;11.386;2023-09-12T01:05:37;95057.09;;;22.12;64.46
79577;BME280;69045;48.136;11.386;2023-09-12T01:08:05;95052.34;;;22.09;64.04
79577;BME280;69045;48.136;11.386;2023-09-12T01:10:35;95044.41;;;22.04;64.29
79577;BME280;69045;48.136;11.386;2023-09-12T01:13:03;95048.16;;;22.03;64.51
79577;BME280;69045;48.136;11.386;2023-09-12T01:15:31;95045.28;;;21.99;64.40
79577;BME280;69045;48.136;11.386;2023-09-12T01:18:01;95042.91;;;21.98;64.49
79577;BME280;69045;48.136;11.386;2023-09-12T01:20:32;95037.38;;;21.94;64.50
79577;BME280;69045;48.136;11.386;2023-09-12T01:23:34;95049.44;;;21.92;64.69
79577;BME280;69045;48.136;11.386;2023-09-12T01:26:29;95048.34;;;21.93;64.61
79577;BME280;69045;48.136;11.386;2023-09-12T01:28:59;95045.56;;;21.84;65.14
79577;BME280;69045;48.136;11.386;2023-09-12T01:31:29;95050.69;;;21.80;65.04
79577;BME280;69045;48.136;11.386;2023-09-12T01:34:08;95055.03;;;21.76;65.34
79577;BME280;69045;48.136;11.386;2023-09-12T01:36:37;95047.59;;;21.73;65.39
79577;BME280;69045;48.136;11.386;2023-09-12T01:39:05;95044.94;;;21.73;65.34
79577;BME280;69045;48.136;11.386;2023-09-12T01:41:40;95052.44;;;21.71;65.60
79577;BME280;69045;48.136;11.386;2023-09-12T01:44:11;95056.41;;;21.74;65.90
79577;BME280;69045;48.136;11.386;2023-09-12T01:46:42;95066.50;;;21.77;65.58
79577;BME280;69045;48.136;11.386;2023-09-12T01:49:14;95060.56;;;21.80;65.51
79577;BME280;69045;48.136;11.386;2023-09-12T01:51:43;95058.19;;;21.78;65.67
79577;BME280;69045;48.136;11.386;2023-09-12T01:54:12;95063.13;;;21.71;65.04
79577;BME280;69045;48.136;11.386;2023-09-12T01:56:40;95067.25;;;21.64;65.77
79577;BME280;69045;48.136;11.386;2023-09-12T01:59:10;95071.69;;;21.55;65.93
79577;BME280;69045;48.136;11.386;2023-09-12T02:01:38;95070.06;;;21.53;66.47
79577;BME280;69045;48.136;11.386;2023-09-12T02:04:08;95063.16;;;21.52;66.17
79577;BME280;69045;48.136;11.386;2023-09-12T02:06:36;95072.25;;;21.51;66.70
79577;BME280;69045;48.136;11.386;2023-09-12T02:09:04;95067.41;;;21.53;66.43
79577;BME280;69045;48.136;11.386;2023-09-12T02:11:32;95070.28;;;21.57;66.53
79577;BME280;69045;48.136;11.386;2023-09-12T02:14:00;95077.13;;;21.63;66.77
79577;BME280;69045;48.136;11.386;2023-09-12T02:16:31;95076.53;;;21.66;66.13
79577;BME280;69045;48.136;11.386;2023-09-12T02:18:59;95075.66;;;21.71;66.39
79577;BME280;69045;48.136;11.386;2023-09-12T02:21:27;95069.25;;;21.72;66.40
79577;BME280;69045;48.136;11.386;2023-09-12T02:23:55;95072.69;;;21.72;66.25
79577;BME280;69045;48.136;11.386;2023-09-12T02:26:23;95080.19;;;21.70;66.13
79577;BME280;69045;48.136;11.386;2023-09-12T02:28:51;95076.03;;;21.64;66.25
79577;BME280;69045;48.136;11.386;2023-09-12T02:31:19;95073.38;;;21.64;66.00
79577;BME280;69045;48.136;11.386;2023-09-12T02:33:49;95079.19;;;21.66;66.03
79577;BME280;69045;48.136;11.386;2023-09-12T02:40:35;95080.88;;;21.62;65.54
79577;BME280;69045;48.136;11.386;2023-09-12T02:43:03;95083.75;;;21.66;65.37
79577;BME280;69045;48.136;11.386;2023-09-12T02:45:32;95084.03;;;21.64;65.96
79577;BME280;69045;48.136;11.386;2023-09-12T02:48:00;95078.22;;;21.62;65.59
79577;BME280;69045;48.136;11.386;2023-09-12T02:50:29;95078.47;;;21.61;65.34
79577;BME280;69045;48.136;11.386;2023-09-12T02:52:57;95075.00;;;21.27;66.20
79577;BME280;69045;48.136;11.386;2023-09-12T02:55:25;95074.84;;;21.19;66.44
79577;BME280;69045;48.136;11.386;2023-09-12T02:57:53;95073.75;;;21.20;66.14
79577;BME280;69045;48.136;11.386;2023-09-12T03:00:22;95073.84;;;21.15;65.99
79577;BME280;69045;48.136;11.386;2023-09-12T03:02:50;95062.84;;;21.03;66.66
79577;BME280;69045;48.136;11.386;2023-09-12T03:05:18;95073.13;;;20.90;67.84
79577;BME280;69045;48.136;11.386;2023-09-12T03:07:47;95070.53;;;20.85;67.49
79577;BME280;69045;48.136;11.386;2023-09-12T03:10:15;95067.66;;;20.82;68.26
79577;BME280;69045;48.136;11.386;2023-09-12T03:12:43;95068.16;;;20.84;68.37
79577;BME280;69045;48.136;11.386;2023-09-12T03:15:11;95072.91;;;20.87;68.16
79577;BME280;69045;48.136;11.386;2023-09-12T03:17:39;95071.03;;;20.87;67.82
79577;BME280;69045;48.136;11.386;2023-09-12T03:20:08;95070.03;;;20.83;68.33
79577;BME280;69045;48.136;11.386;2023-09-12T03:22:37;95077.44;;;20.86;68.24
79577;BME280;69045;48.136;11.386;2023-09-12T03:25:08;95071.31;;;20.86;67.67
79577;BME280;69045;48.136;11.386;2023-09-12T03:27:36;95070.47;;;20.90;67.69
79577;BME280;69045;48.136;11.386;2023-09-12T03:30:05;95073.84;;;20.96;67.72
79577;BME280;69045;48.136;11.386;2023-09-12T03:32:34;95078.31;;;21.01;67.32
79577;BME280;69045;48.136;11.386;2023-09-12T03:35:02;95069.75;;;21.04;67.59
79577;BME280;69045;48.136;11.386;2023-09-12T03:37:30;95073.97;;;21.05;67.98
79577;BME280;69045;48.136;11.386;2023-09-12T03:39:58;95068.09;;;21.08;67.40
79577;BME280;69045;48.136;11.386;2023-09-12T03:42:27;95067.06;;;21.04;67.34
79577;BME280;69045;48.136;11.386;2023-09-12T03:45:08;95068.66;;;21.05;67.29
79577;BME280;69045;48.136;11.386;2023-09-12T03:47:37;95076.72;;;20.99;67.45
79577;BME280;69045;48.136;11.386;2023-09-12T03:50:06;95073.06;;;20.95;67.66
79577;BME280;69045;48.136;11.386;2023-09-12T03:52:34;95073.34;;;20.94;67.85
79577;BME280;69045;48.136;11.386;2023-09-12T03:55:02;95071.25;;;20.91;67.28
79577;BME280;69045;48.136;11.386;2023-09-12T03:57:31;95070.03;;;20.83;67.88
79577;BME280;69045;48.136;11.386;2023-09-12T03:59:59;95071.41;;;20.81;68.15
79577;BME280;69045;48.136;11.386;2023-09-12T04:02:28;95070.59;;;20.80;68.39
79577;BME280;69045;48.136;11.386;2023-09-12T04:04:56;95073.47;;;20.84;67.89
79577;BME280;69045;48.136;11.386;2023-09-12T04:07:26;95076.13;;;20.84;67.79
79577;BME280;69045;48.136;11.386;2023-09-12T04:09:54;95075.59;;;20.87;67.50
79577;BME280;69045;48.136;11.386;2023-09-12T04:12:22;95073.72;;;20.87;68.02
79577;BME280;69045;48.136;11.386;2023-09-12T04:14:52;95075.00;;;20.90;68.13
79577;BME280;69045;48.136;11.386;2023-09-12T04:17:21;95078.44;;;20.90;67.96
79577;BME280;69045;48.136;11.386;2023-09-12T04:19:49;95079.03;;;20.87;68.04
79577;BME280;69045;48.136;11.386;2023-09-12T04:22:18;95081.97;;;20.86;68.31
79577;BME280;69045;48.136;11.386;2023-09-12T04:24:49;95084.63;;;20.86;68.31
79577;BME280;69045;48.136;11.386;2023-09-12T04:27:17;95082.78;;;20.86;68.03
79577;BME280;69045;48.136;11.386;2023-09-12T04:29:45;95081.47;;;20.84;67.80
79577;BME280;69045;48.136;11.386;2023-09-12T04:32:15;95085.94;;;20.88;67.60
79577;BME280;69045;48.136;11.386;2023-09-12T04:34:50;95076.63;;;20.86;67.16
79577;BME280;69045;48.136;11.386;2023-09-12T04:37:19;95088.38;;;20.85;67.04
79577;BME280;69045;48.136;11.386;2023-09-12T04:39:48;95085.56;;;20.76;66.90
79577;BME280;69045;48.136;11.386;2023-09-12T04:42:16;95080.22;;;20.76;67.27
79577;BME280;69045;48.136;11.386;2023-09-12T04:44:45;95077.63;;;20.71;67.17
79577;BME280;69045;48.136;11.386;2023-09-12T04:47:12;95074.69;;;20.72;67.04
79577;BME280;69045;48.136;11.386;2023-09-12T04:49:43;95085.25;;;20.78;66.91
79577;BME280;69045;48.136;11.386;2023-09-12T04:52:11;95078.38;;;20.77;66.88
79577;BME280;69045;48.136;11.386;2023-09-12T04:54:39;95076.78;;;20.76;66.80
79577;BME280;69045;48.136;11.386;2023-09-12T04:57:07;95075.19;;;20.75;66.85
79577;BME280;69045;48.136;11.386;2023-09-12T04:59:36;95074.97;;;20.71;66.94
79577;BME280;69045;48.136;11.386;2023-09-12T05:02:04;95082.97;;;20.71;67.62
79577;BME280;69045;48.136;11.386;2023-09-12T05:04:32;95087.28;;;20.67;67.85
79577;BME280;69045;48.136;11.386;2023-09-12T05:07:02;95087.34;;;20.62;67.96
79577;BME280;69045;48.136;11.386;2023-09-12T05:09:30;95083.66;;;20.58;68.19
79577;BME280;69045;48.136;11.386;2023-09-12T05:11:58;95080.66;;;20.64;68.50
79577;BME280;69045;48.136;11.386;2023-09-12T05:14:29;95084.03;;;20.70;68.45
79577;BME280;69045;48.136;11.386;2023-09-12T05:16:57;95086.41;;;20.71;68.14
79577;BME280;69045;48.136;11.386;2023-09-12T05:19:25;95085.78;;;20.80;67.97
79577;BME280;69045;48.136;11.386;2023-09-12T05:21:53;95092.06;;;20.89;67.60
79577;BME280;69045;48.136;11.386;2023-09-12T05:24:23;95088.25;;;20.95;67.19
79577;BME280;69045;48.136;11.386;2023-09-12T05:26:50;95095.53;;;21.08;67.35
79577;BME280;69045;48.136;11.386;2023-09-12T05:29:18;95094.28;;;21.19;66.89
79577;BME280;69045;48.136;11.386;2023-09-12T05:31:46;95094.66;;;21.32;66.68
79577;BME280;69045;48.136;11.386;2023-09-12T05:34:14;95096.22;;;21.51;66.22
79577;BME280;69045;48.136;11.386;2023-09-12T05:36:42;95102.91;;;21.68;65.40
79577;BME280;69045;48.136;11.386;2023-09-12T05:39:10;95103.22;;;21.80;64.72
79577;BME280;69045;48.136;11.386;2023-09-12T05:41:41;95095.00;;;21.95;64.54
79577;BME280;69045;48.136;11.386;2023-09-12T05:44:10;95100.78;;;22.16;64.04
79577;BME280;69045;48.136;11.386;2023-09-12T05:46:39;95107.50;;;22.41;63.30
79577;BME280;69045;48.136;11.386;2023-09-12T05:49:07;95106.72;;;22.68;62.58
79577;BME280;69045;48.136;11.386;2023-09-12T05:51:35;95100.56;;;22.95;61.72
79577;BME280;69045;48.136;11.386;2023-09-12T05:54:04;95107.75;;;23.22;60.72
79577;BME280;69045;48.136;11.386;2023-09-12T05:56:32;95104.00;;;23.46;59.78
79577;BME280;69045;48.136;11.386;2023-09-12T05:59:01;95109.22;;;23.64;59.62
79577;BME280;69045;48.136;11.386;2023-09-12T06:01:29;95102.94;;;23.91;59.25
79577;BME280;69045;48.136;11.386;2023-09-12T06:03:58;95104.81;;;24.22;58.21
79577;BME280;69045;48.136;11.386;2023-09-12T06:06:26;95113.00;;;24.48;56.62
79577;BME280;69045;48.136;11.386;2023-09-12T06:08:54;95115.72;;;24.65;56.18
79577;BME280;69045;48.136;11.386;2023-09-12T06:11:22;95120.84;;;24.84;55.79
79577;BME280;69045;48.136;11.386;2023-09-12T06:13:50;95116.63;;;25.00;55.58
79577;BME280;69045;48.136;11.386;2023-09-12T06:16:19;95115.09;;;25.17;54.84
79577;BME280;69045;48.136;11.386;2023-09-12T06:18:48;95114.00;;;25.26;54.63
79577;BME280;69045;48.136;11.386;2023-09-12T06:21:16;95115.44;;;25.41;54.26
79577;BME280;69045;48.136;11.386;2023-09-12T06:23:44;95115.28;;;25.55;53.36
79577;BME280;69045;48.136;11.386;2023-09-12T06:26:12;95120.00;;;25.84;53.07
79577;BME280;69045;48.136;11.386;2023-09-12T06:28:40;95119.03;;;26.06;52.79
79577;BME280;69045;48.136;11.386;2023-09-12T06:31:08;95120.72;;;26.19;51.83
79577;BME280;69045;48.136;11.386;2023-09-12T06:33:38;95124.03;;;26.25;51.71
79577;BME280;69045;48.136;11.386;2023-09-12T06:36:06;95124.31;;;26.40;51.86
79577;BME280;69045;48.136;11.386;2023-09-12T06:38:34;95126.78;;;26.63;51.78
79577;BME280;69045;48.136;11.386;2023-09-12T06:41:02;95124.59;;;26.86;50.62
79577;BME280;69045;48.136;11.386;2023-09-12T06:43:31;95121.81;;;27.03;49.71
79577;BME280;69045;48.136;11.386;2023-09-12T06:45:59;95122.78;;;27.28;49.84
79577;BME280;69045;48.136;11.386;2023-09-12T06:48:27;95120.88;;;27.49;48.69
79577;BME280;69045;48.136;11.386;2023-09-12T06:50:56;95123.28;;;27.72;48.55
79577;BME280;69045;48.136;11.386;2023-09-12T06:53:24;95125.34;;;27.87;48.29
79577;BME280;69045;48.136;11.386;2023-09-12T06:55:52;95129.56;;;28.09;47.48
79577;BME280;69045;48.136;11.386;2023-09-12T06:58:20;95131.91;;;28.44;46.84
79577;BME280;69045;48.136;11.386;2023-09-12T07:00:48;95128.13;;;29.06;45.44
79577;BME280;69045;48.136;11.386;2023-09-12T07:03:16;95134.31;;;29.71;44.31
79577;BME280;69045;48.136;11.386;2023-09-12T07:05:44;95143.78;;;30.49;43.18
79577;BME280;69045;48.136;11.386;2023-09-12T07:08:14;95135.41;;;31.02;41.19
79577;BME280;69045;48.136;11.386;2023-09-12T07:10:44;95141.25;;;31.74;39.98
79577;BME280;69045;48.136;11.386;2023-09-12T07:13:12;95141.03;;;32.41;39.06
79577;BME280;69045;48.136;11.386;2023-09-12T07:15:40;95143.41;;;32.88;36.95
79577;BME280;69045;48.136;11.386;2023-09-12T07:18:08;95141.81;;;33.66;36.01
79577;BME280;69045;48.136;11.386;2023-09-12T07:20:36;95143.94;;;33.80;35.40
79577;BME280;69045;48.136;11.386;2023-09-12T07:23:04;95144.22;;;34.02;34.85
79577;BME280;69045;48.136;11.386;2023-09-12T07:25:38;95144.50;;;34.67;34.63
79577;BME280;69045;48.136;11.386;2023-09-12T07:28:06;95148.78;;;35.09;33.29
79577;BME280;69045;48.136;11.386;2023-09-12T07:30:35;95148.63;;;35.43;33.58
79577;BME280;69045;48.136;11.386;2023-09-12T07:33:04;95153.22;;;36.01;31.91
79577;BME280;69045;48.136;11.386;2023-09-12T07:35:32;95147.16;;;36.61;30.40
79577;BME280;69045;48.136;11.386;2023-09-12T07:38:00;95153.44;;;37.15;30.42
79577;BME280;69045;48.136;11.386;2023-09-12T07:40:28;95152.63;;;37.25;29.59
79577;BME280;69045;48.136;11.386;2023-09-12T07:42:58;95154.47;;;37.78;29.39
79577;BME280;69045;48.136;11.386;2023-09-12T07:45:25;95154.75;;;38.12;28.15
79577;BME280;69045;48.136;11.386;2023-09-12T07:47:54;95154.56;;;38.55;28.54
79577;BME280;69045;48.136;11.386;2023-09-12T07:50:22;95147.28;;;38.86;28.33
79577;BME280;69045;48.136;11.386;2023-09-12T07:52:50;95146.13;;;38.28;28.49
79577;BME280;69045;48.136;11.386;2023-09-12T07:55:18;95154.56;;;37.50;29.18
79577;BME280;69045;48.136;11.386;2023-09-12T07:57:46;95151.09;;;37.13;30.31
79577;BME280;69045;48.136;11.386;2023-09-12T08:00:16;95154.13;;;37.65;29.25
79577;BME280;69045;48.136;11.386;2023-09-12T08:02:44;95153.59;;;38.10;29.34
79577;BME280;69045;48.136;11.386;2023-09-12T08:05:12;95158.06;;;38.56;28.56
79577;BME280;69045;48.136;11.386;2023-09-12T08:07:41;95151.31;;;37.97;29.71
79577;BME280;69045;48.136;11.386;2023-09-12T08:10:09;95159.38;;;38.92;28.55
79577;BME280;69045;48.136;11.386;2023-09-12T08:12:37;95156.88;;;39.09;28.08
79577;BME280;69045;48.136;11.386;2023-09-12T08:15:08;95163.50;;;39.18;27.20
79577;BME280;69045;48.136;11.386;2023-09-12T08:17:37;95163.00;;;39.30;27.79
79577;BME280;69045;48.136;11.386;2023-09-12T08:20:08;95166.03;;;39.40;27.36
79577;BME280;69045;48.136;11.386;2023-09-12T08:22:37;95160.34;;;39.65;26.94
79577;BME280;69045;48.136;11.386;2023-09-12T08:25:06;95165.22;;;39.84;26.57
79577;BME280;69045;48.136;11.386;2023-09-12T08:27:34;95160.94;;;39.79;26.05
79577;BME280;69045;48.136;11.386;2023-09-12T08:30:02;95166.44;;;39.79;27.19
79577;BME280;69045;48.136;11.386;2023-09-12T08:32:31;95163.63;;;39.87;26.92
79577;BME280;69045;48.136;11.386;2023-09-12T08:35:00;95158.31;;;40.06;26.17
79577;BME280;69045;48.136;11.386;2023-09-12T08:37:30;95161.28;;;40.19;26.17
79577;BME280;69045;48.136;11.386;2023-09-12T08:39:58;95164.66;;;39.96;25.99
79577;BME280;69045;48.136;11.386;2023-09-12T08:42:27;95161.19;;;39.92;27.19
79577;BME280;69045;48.136;11.386;2023-09-12T08:44:55;95157.75;;;39.84;27.02
79577;BME280;69045;48.136;11.386;2023-09-12T08:47:24;95158.00;;;39.63;26.85
79577;BME280;69045;48.136;11.386;2023-09-12T08:49:54;95158.69;;;39.71;26.95
79577;BME280;69045;48.136;11.386;2023-09-12T08:52:23;95155.22;;;39.67;27.65
79577;BME280;69045;48.136;11.386;2023-09-12T08:54:51;95155.78;;;39.47;27.44
79577;BME280;69045;48.136;11.386;2023-09-12T08:57:21;95153.28;;;39.64;27.14
79577;BME280;69045;48.136;11.386;2023-09-12T08:59:50;95160.00;;;40.27;26.25
79577;BME280;69045;48.136;11.386;2023-09-12T09:02:20;95151.81;;;39.11;27.51
79577;BME280;69045;48.136;11.386;2023-09-12T09:04:50;95148.59;;;39.19;27.61
79577;BME280;69045;48.136;11.386;2023-09-12T09:07:20;95148.81;;;39.39;27.77
79577;BME280;69045;48.136;11.386;2023-09-12T09:09:50;95143.94;;;39.57;27.43
79577;BME280;69045;48.136;11.386;2023-09-12T09:12:20;95148.56;;;39.98;27.47
79577;BME280;69045;48.136;11.386;2023-09-12T09:14:48;95136.66;;;40.12;27.26
79577;BME280;69045;48.136;11.386;2023-09-12T09:17:16;95141.38;;;40.11;26.92
79577;BME280;69045;48.136;11.386;2023-09-12T09:20:01;95132.75;;;40.40;26.70
79577;BME280;69045;48.136;11.386;2023-09-12T09:22:32;95129.53;;;40.18;27.24
79577;BME280;69045;48.136;11.386;2023-09-12T09:25:11;95137.84;;;39.77;27.28
79577;BME280;69045;48.136;11.386;2023-09-12T09:27:40;95126.50;;;40.09;27.44
79577;BME280;69045;48.136;11.386;2023-09-12T09:30:09;95116.31;;;40.63;26.86
79577;BME280;69045;48.136;11.386;2023-09-12T09:32:37;95123.28;;;40.72;26.35
79577;BME280;69045;48.136;11.386;2023-09-12T09:35:06;95125.31;;;40.37;25.91
79577;BME280;69045;48.136;11.386;2023-09-12T09:37:34;95125.28;;;40.10;26.10
79577;BME280;69045;48.136;11.386;2023-09-12T09:40:06;95130.78;;;39.76;26.96
79577;BME280;69045;48.136;11.386;2023-09-12T09:42:37;95129.41;;;39.61;27.09
79577;BME280;69045;48.136;11.386;2023-09-12T09:45:06;95122.84;;;38.58;27.65
79577;BME280;69045;48.136;11.386;2023-09-12T09:47:34;95127.63;;;37.48;29.46
79577;BME280;69045;48.136;11.386;2023-09-12T09:50:03;95119.31;;;37.84;29.36
79577;BME280;69045;48.136;11.386;2023-09-12T09:52:31;95117.94;;;38.31;29.17
79577;BME280;69045;48.136;11.386;2023-09-12T09:54:58;95121.56;;;38.00;28.59
79577;BME280;69045;48.136;11.386;2023-09-12T09:57:27;95120.13;;;37.66;29.34
79577;BME280;69045;48.136;11.386;2023-09-12T09:59:57;95120.78;;;35.78;30.49
79577;BME280;69045;48.136;11.386;2023-09-12T10:02:27;95128.69;;;35.32;31.19
79577;BME280;69045;48.136;11.386;2023-09-12T10:04:57;95116.72;;;36.66;30.83
79577;BME280;69045;48.136;11.386;2023-09-12T10:07:28;95112.03;;;37.20;28.77
79577;BME280;69045;48.136;11.386;2023-09-12T10:10:03;95118.31;;;36.88;29.77
79577;BME280;69045;48.136;11.386;2023-09-12T10:12:35;95117.22;;;35.67;31.40
79577;BME280;69045;48.136;11.386;2023-09-12T10:15:08;95111.56;;;36.29;30.23
79577;BME280;69045;48.136;11.386;2023-09-12T10:17:42;95110.88;;;37.07;29.21
79577;BME280;69045;48.136;11.386;2023-09-12T10:20:18;95114.00;;;37.12;28.87
79577;BME280;69045;48.136;11.386;2023-09-12T10:22:55;95101.53;;;36.86;29.35
79577;BME280;69045;48.136;11.386;2023-09-12T10:25:24;95107.34;;;37.17;27.62
79577;BME280;69045;48.136;11.386;2023-09-12T10:27:52;95105.38;;;37.25;28.05
79577;BME280;69045;48.136;11.386;2023-09-12T10:30:24;95100.66;;;37.32;26.50
79577;BME280;69045;48.136;11.386;2023-09-12T10:32:54;95105.41;;;36.71;26.44
79577;BME280;69045;48.136;11.386;2023-09-12T10:35:23;95101.44;;;36.19;26.05
79577;BME280;69045;48.136;11.386;2023-09-12T10:37:54;95093.22;;;36.15;27.51
79577;BME280;69045;48.136;11.386;2023-09-12T10:40:27;95093.66;;;36.35;27.61
79577;BME280;69045;48.136;11.386;2023-09-12T10:42:57;95095.28;;;36.54;27.90
79577;BME280;69045;48.136;11.386;2023-09-12T10:45:29;95098.31;;;36.13;29.08
79577;BME280;69045;48.136;11.386;2023-09-12T10:47:59;95094.88;;;36.66;27.85
79577;BME280;69045;48.136;11.386;2023-09-12T10:50:27;95093.72;;;36.39;28.64
79577;BME280;69045;48.136;11.386;2023-09-12T10:53:09;95094.06;;;36.44;28.61
79577;BME280;69045;48.136;11.386;2023-09-12T10:55:37;95088.97;;;36.35;30.17
79577;BME280;69045;48.136;11.386;2023-09-12T10:58:07;95094.88;;;36.91;28.94
79577;BME280;69045;48.136;11.386;2023-09-12T11:00:37;95092.06;;;37.44;28.16
79577;BME280;69045;48.136;11.386;2023-09-12T11:03:37;95093.06;;;37.93;27.93
79577;BME280;69045;48.136;11.386;2023-09-12T11:06:20;95093.47;;;37.92;27.85
79577;BME280;69045;48.136;11.386;2023-09-12T11:09:17;95083.34;;;37.89;27.89
79577;BME280;69045;48.136;11.386;2023-09-12T11:11:48;95090.81;;;37.81;26.82
79577;BME280;69045;48.136;11.386;2023-09-12T11:14:16;95090.91;;;37.31;26.97
79577;BME280;69045;48.136;11.386;2023-09-12T11:17:21;95086.31;;;36.53;28.27
79577;BME280;69045;48.136;11.386;2023-09-12T11:19:51;95087.06;;;36.82;27.69
79577;BME280;69045;48.136;11.386;2023-09-12T11:22:22;95082.00;;;37.06;27.75
79577;BME280;69045;48.136;11.386;2023-09-12T11:24:50;95088.25;;;36.67;27.78
79577;BME280;69045;48.136;11.386;2023-09-12T11:27:19;95080.44;;;36.73;28.18
79577;BME280;69045;48.136;11.386;2023-09-12T11:29:47;95081.22;;;37.09;28.02
79577;BME280;69045;48.136;11.386;2023-09-12T11:32:29;95076.56;;;36.95;27.86
79577;BME280;69045;48.136;11.386;2023-09-12T11:34:59;95083.19;;;36.62;29.10
79577;BME280;69045;48.136;11.386;2023-09-12T11:37:33;95077.00;;;35.46;29.57
79577;BME280;69045;48.136;11.386;2023-09-12T11:40:16;95077.22;;;34.64;30.12
79577;BME280;69045;48.136;11.386;2023-09-12T11:42:45;95080.38;;;34.70;30.45
79577;BME280;69045;48.136;11.386;2023-09-12T11:45:14;95072.97;;;34.26;31.68
79577;BME280;69045;48.136;11.386;2023-09-12T11:47:47;95072.41;;;34.47;31.47
79577;BME280;69045;48.136;11.386;2023-09-12T11:50:29;95066.94;;;34.43;31.94
79577;BME280;69045;48.136;11.386;2023-09-12T11:53:02;95062.81;;;34.19;32.70
79577;BME280;69045;48.136;11.386;2023-09-12T11:55:34;95061.88;;;34.01;32.78
79577;BME280;69045;48.136;11.386;2023-09-12T11:58:03;95066.66;;;34.15;32.19
79577;BME280;69045;48.136;11.386;2023-09-12T12:00:32;95063.50;;;34.09;31.87
79577;BME280;69045;48.136;11.386;2023-09-12T12:03:02;95059.19;;;34.45;31.21
79577;BME280;69045;48.136;11.386;2023-09-12T12:05:30;95064.28;;;34.54;31.75
79577;BME280;69045;48.136;11.386;2023-09-12T12:08:00;95066.38;;;34.71;31.58
79577;BME280;69045;48.136;11.386;2023-09-12T12:10:50;95065.47;;;35.08;30.68
79577;BME280;69045;48.136;11.386;2023-09-12T12:13:18;95057.25;;;34.97;30.99
79577;BME280;69045;48.136;11.386;2023-09-12T12:15:47;95057.66;;;34.96;31.20
79577;BME280;69045;48.136;11.386;2023-09-12T12:18:17;95054.78;;;34.82;30.32
79577;BME280;69045;48.136;11.386;2023-09-12T12:20:45;95056.28;;;34.72;30.12
79577;BME280;69045;48.136;11.386;2023-09-12T12:23:13;95052.47;;;34.84;31.25
79577;BME280;69045;48.136;11.386;2023-09-12T12:25:42;95054.38;;;34.80;30.45
79577;BME280;69045;48.136;11.386;2023-09-12T12:28:10;95052.53;;;34.91;29.50
79577;BME280;69045;48.136;11.386;2023-09-12T12:30:41;95051.28;;;34.81;30.54
79577;BME280;69045;48.136;11.386;2023-09-12T12:33:10;95047.03;;;34.84;30.88
79577;BME280;69045;48.136;11.386;2023-09-12T12:36:03;95044.81;;;34.96;31.29
79577;BME280;69045;48.136;11.386;2023-09-12T12:38:34;95043.16;;;34.85;30.84
79577;BME280;69045;48.136;11.386;2023-09-12T12:41:06;95037.13;;;34.61;31.42
79577;BME280;69045;48.136;11.386;2023-09-12T12:43:34;95041.69;;;34.43;31.37
79577;BME280;69045;48.136;11.386;2023-09-12T12:46:03;95030.72;;;34.36;30.54
79577;BME280;69045;48.136;11.386;2023-09-12T12:48:32;95032.38;;;34.47;30.73
79577;BME280;69045;48.136;11.386;2023-09-12T12:51:14;95032.84;;;34.60;30.17
79577;BME280;69045;48.136;11.386;2023-09-12T12:53:45;95026.72;;;34.70;30.38
79577;BME280;69045;48.136;11.386;2023-09-12T12:56:22;95015.13;;;34.88;30.06
79577;BME280;69045;48.136;11.386;2023-09-12T12:58:54;95010.53;;;34.95;30.92
79577;BME280;69045;48.136;11.386;2023-09-12T13:01:24;95012.13;;;34.96;30.07
79577;BME280;69045;48.136;11.386;2023-09-12T13:03:52;95005.47;;;34.94;30.08
79577;BME280;69045;48.136;11.386;2023-09-12T13:06:24;95013.19;;;34.85;30.53
79577;BME280;69045;48.136;11.386;2023-09-12T13:08:54;95014.31;;;34.77;30.92